Latest Coastal Weather Observations for Tasman Island

IDT60701

Issued at 1:21 pm EDT Thursday 18 December 2014 (issued every 10 minutes, with the page automatically refreshed every 10 minutes)

About coastal observations | Map of coastal stations | Coastal observations for TAS | Marine services | Other Formats
Station Details ID: 094155 Name: TASMAN ISLAND Lat: -43.24 Lon: 148.00 Height: 240.0 m
Data from the previous 72 hours. | See also: Recent months at Tasman Island
Date/Time
EDT
Temp

°C
Wind Pressure Rain
since 9am
mm
Weather Cloud Vis
km
Sea
Height
m
Swell
Dir
 
Speed
knots
Gust
knots
hPa Trend Height
m
Period
s
Dir
18/01:00pm 13.9 NNE 25 31 1001.2 - 0.0 - - - - - - -
18/12:30pm 15.0 N 24 35 1001.9 - 0.0 - - - - - - -
18/12:12pm 15.3 N 25 36 1001.8 - 0.0 - - - - - - -
18/12:00pm 15.1 N 25 31 1001.9 - 0.0 - - - - - - -
18/11:30am 16.0 N 22 29 1002.1 - 0.0 - - - - - - -
18/11:00am 15.3 N 21 26 1002.3 - 0.0 - - - - - - -
18/10:30am 16.1 NNW 11 19 1002.7 - 0.0 - - - - - - -
18/10:00am 14.7 NNW 17 24 1002.7 - 0.0 - - - - - - -
18/09:30am 14.9 NNW 17 23 1003.0 - 0.0 - - - - - - -
18/09:00am 14.1 NNW 17 24 1003.2 - 0.0 - - - - - - -
18/08:30am 13.9 NNW 12 22 1003.3 - 0.0 - - - - - - -
18/08:00am 13.2 NNW 9 18 1003.4 - 0.0 - - - - - - -
18/07:30am 11.9 N 9 14 1003.3 - 0.0 - - - - - - -
18/07:00am 12.2 N 10 16 1003.4 - 0.0 - - - - - - -
18/06:30am 11.7 N 9 13 1003.4 - 0.0 - - - - - - -
18/06:00am 11.9 NW 10 14 1003.4 - 0.0 - - - - - - -
18/05:30am 12.0 NW 10 16 1003.3 - 0.0 - - - - - - -
18/05:00am 11.9 NW 14 19 1003.2 - 0.0 - - - - - - -
18/04:30am 11.7 NW 13 19 1003.2 - 0.0 - - - - - - -
18/04:00am 12.0 NW 15 20 1003.3 - 0.0 - - - - - - -
18/03:30am 12.0 NW 13 18 1003.3 - 0.0 - - - - - - -
18/03:00am 11.3 NNW 7 11 1003.5 - 0.0 - - - - - - -
18/02:30am 11.2 N 5 7 1003.8 - 0.0 - - - - - - -
18/02:00am 11.5 NE 4 5 1004.0 - 0.0 - - - - - - -
18/01:30am 11.9 NNE 7 10 1004.4 - 0.0 - - - - - - -
18/01:00am 12.1 NE 7 13 1004.6 - 0.0 - - - - - - -
18/12:30am 11.8 NE 7 14 1005.1 - 0.0 - - - - - - -
18/12:00am 11.7 NNE 8 15 1005.3 - 0.0 - - - - - - -
 
Date/Time
EDT
Temp

°C
Wind Pressure Rain
since 9am
mm
Weather Cloud Vis
km
Sea
Height
m
Swell
Dir
 
Speed
knots
Gust
knots
hPa Trend Height
m
Period
s
Dir
17/11:30pm 11.7 NE 9 15 1005.6 - 0.0 - - - - - - -
17/11:00pm 11.5 NE 9 17 1005.9 - 0.0 - - - - - - -
17/10:30pm 11.5 NE 10 16 1006.1 - 0.0 - - - - - - -
17/10:00pm 11.5 NE 9 17 1006.4 - 0.0 - - - - - - -
17/09:30pm 11.2 NE 10 19 1006.4 - 0.0 - - - - - - -
17/09:00pm 11.6 ENE 5 12 1006.2 - 0.0 - - - - - - -
17/08:30pm 11.4 ENE 5 8 1006.3 - 0.0 - - - - - - -
17/08:00pm 11.4 ENE 2 3 1006.2 - 0.0 - - - - - - -
17/07:30pm 11.7 ENE 1 2 1006.0 - 0.0 - - - - - - -
17/07:00pm 11.9 WSW 2 4 1005.4 - 0.0 - - - - - - -
17/06:30pm 12.5 SSW 7 11 1004.4 - 0.0 - - - - - - -
17/06:00pm 12.2 SSW 7 11 1004.4 - 0.0 - - - - - - -
17/05:30pm 13.0 SSW 8 12 1004.3 - 0.0 - - - - - - -
17/05:00pm 13.4 SSW 9 13 1004.3 - 0.0 - - - - - - -
17/04:30pm 13.1 SSW 6 9 1004.2 - 0.0 - - - - - - -
17/04:00pm 13.4 SSW 6 9 1004.3 - 0.0 - - - - - - -
17/03:30pm 12.6 SW 5 10 1004.3 - 0.0 - - - - - - -
17/03:00pm 13.9 SW 7 11 1004.0 - 0.0 - - - - - - -
17/02:30pm 14.6 WSW 6 12 1003.9 - 0.0 - - - - - - -
17/02:00pm 13.9 W 6 10 1003.9 - 0.0 - - - - - - -
17/01:30pm 13.1 WNW 4 10 1003.8 - 0.0 - - - - - - -
17/01:00pm 11.4 W 6 13 1003.7 - 0.0 - - - - - - -
17/12:30pm 13.4 SW 4 13 1003.3 - 0.0 - - - - - - -
17/12:00pm 12.7 SSW 5 15 1002.8 - 0.0 - - - - - - -
17/11:30am 12.4 NNW 6 24 1002.3 - 0.0 - - - - - - -
17/11:00am 12.2 NNW 5 18 1002.0 - 0.0 - - - - - - -
17/10:30am 11.1 NNW 4 10 1001.8 - 0.0 - - - - - - -
17/10:00am 11.4 NW 6 21 1001.0 - 0.0 - - - - - - -
17/09:30am 10.5 NW 6 17 1000.8 - 0.0 - - - - - - -
17/09:00am 9.2 SW 9 22 1000.0 - 24.0 - - - - - - -
17/08:30am 10.5 NNW 6 18 999.6 - 24.0 - - - - - - -
17/08:00am 9.9 E 6 22 998.8 - 24.0 - - - - - - -
17/07:30am 9.9 WNW 8 32 997.4 - 24.0 - - - - - - -
17/07:00am 9.8 NW 8 26 997.5 - 24.0 - - - - - - -
17/06:30am 9.6 N 7 18 996.8 - 24.0 - - - - - - -
17/06:00am 9.1 NNE 8 28 995.8 - 24.0 - - - - - - -
17/05:30am 9.3 NW 7 25 995.2 - 24.0 - - - - - - -
17/05:00am 9.4 E 7 29 994.8 - 24.0 - - - - - - -
17/04:30am 9.7 NW 8 26 994.0 - 24.0 - - - - - - -
17/04:00am 9.6 NW 10 30 993.2 - 24.0 - - - - - - -
17/03:30am 10.2 NNW 8 24 992.7 - 24.0 - - - - - - -
17/03:00am 10.1 NNE 7 35 992.5 - 24.0 - - - - - - -
17/02:30am 10.1 WNW 7 23 991.2 - 24.0 - - - - - - -
17/02:00am 10.2 NW 8 24 991.2 - 24.0 - - - - - - -
17/01:30am 10.1 WNW 10 34 990.6 - 24.0 - - - - - - -
17/01:09am 10.2 WNW 9 35 990.2 - 24.0 - - - - - - -
17/01:00am 9.5 NW 7 36 990.4 - 23.8 - - - - - - -
17/12:37am 10.8 SW 9 41 989.6 - 22.6 - - - - - - -
17/12:30am 11.3 N 6 19 989.9 - 22.6 - - - - - - -
17/12:00am 11.4 SW 11 33 989.5 - 22.6 - - - - - - -
 
Date/Time
EDT
Temp

°C
Wind Pressure Rain
since 9am
mm
Weather Cloud Vis
km
Sea
Height
m
Swell
Dir
 
Speed
knots
Gust
knots
hPa Trend Height
m
Period
s
Dir
16/11:30pm 11.5 WSW 5 21 989.2 - 22.6 - - - - - - -
16/11:00pm 11.7 WNW 8 24 989.0 - 22.6 - - - - - - -
16/10:30pm 12.0 WNW 6 21 988.9 - 22.6 - - - - - - -
16/10:00pm 12.6 NW 6 18 987.9 - 22.6 - - - - - - -
16/09:37pm 13.2 WNW 16 33 987.3 - 22.6 - - - - - - -
16/09:30pm 13.3 WNW 22 33 987.3 - 22.6 - - - - - - -
16/09:01pm 13.3 NW 23 34 986.2 - 22.6 - - - - - - -
16/09:00pm 13.3 NW 22 33 986.1 - 22.6 Recent precip. - - - - - -
16/08:55pm 12.7 NNW 20 31 986.0 - 22.6 - - - - - - -
16/08:31pm 12.5 N 17 28 986.2 - 22.6 - - - - - - -
16/08:30pm 12.4 N 16 25 986.2 - 22.6 - - - - - - -
16/08:00pm 12.2 N 10 16 985.4 - 22.4 - - - - - - -
16/07:30pm 12.2 SSW 15 22 984.9 - 20.6 - - - - - - -
16/07:00pm 12.1 S 11 18 985.5 - 16.8 - - - - - - -
16/06:30pm 12.1 SW 9 14 985.7 - 16.2 - - - - - - -
16/06:25pm 12.3 SSW 7 13 986.2 - 15.8 - - - - - - -
16/06:00pm 12.0 SSW 9 21 984.2 - 15.0 Rain - - - - - -
16/05:30pm 12.5 WSW 8 13 983.9 - 6.8 - - - - - - -
16/05:00pm 12.7 SW 8 12 984.2 - 6.8 - - - - - - -
16/04:30pm 12.8 W 7 12 985.1 - 6.8 - - - - - - -
16/04:00pm 12.6 SSW 6 18 985.3 - 6.8 - - - - - - -
16/03:43pm 12.8 SW 22 44 985.1 - 4.8 - - - - - - -
16/03:33pm 13.1 WNW 29 66 983.2 - 0.4 - - - - - - -
16/03:32pm 13.4 N 31 66 982.8 - 0.4 - - - - - - -
16/03:30pm 14.4 N 34 66 981.1 - 0.4 - - - - - - -
16/03:29pm 14.9 N 34 51 982.7 - 0.4 - - - - - - -
16/03:09pm 16.7 N 30 40 984.1 - 0.4 - - - - - - -
16/03:00pm 16.5 N 25 34 984.7 - 0.4 - - - - - - -
16/02:30pm 16.2 N 23 30 985.7 - 0.4 - - - - - - -
16/02:00pm 16.1 N 25 32 986.8 - 0.4 - - - - - - -
16/01:31pm 16.3 NNE 29 39 987.3 - 0.4 - - - - - - -
16/01:30pm 16.3 NNE 29 38 987.4 - 0.4 - - - - - - -
16/01:08pm 16.4 NNE 29 39 988.2 - 0.4 - - - - - - -
16/01:00pm 16.2 NNE 29 37 988.5 - 0.4 - - - - - - -
16/12:30pm 16.5 NNE 27 37 989.2 - 0.4 - - - - - - -
16/12:16pm 16.3 NNE 25 36 989.6 - 0.4 - - - - - - -
16/12:00pm 15.4 NNE 23 30 989.9 - 0.4 - - - - - - -
16/11:30am 15.8 NNE 23 30 991.0 - 0.4 - - - - - - -
16/11:00am 15.7 NNE 23 30 991.6 - 0.4 - - - - - - -
16/10:30am 15.3 NNE 18 25 992.4 - 0.4 - - - - - - -
16/10:00am 14.7 NNE 20 25 993.2 - 0.0 - - - - - - -
16/09:30am 16.0 NNE 22 28 993.4 - 0.0 - - - - - - -
16/09:00am 15.0 NNE 19 25 994.2 - 0.0 - - - - - - -
16/08:30am 14.4 NNE 19 23 994.6 - 0.0 - - - - - - -
16/08:00am 15.8 NNE 21 25 995.1 - 0.0 - - - - - - -
16/07:30am 15.1 NNE 16 20 995.4 - 0.0 - - - - - - -
16/07:00am 15.8 N 15 20 995.4 - 0.0 - - - - - - -
16/06:30am 15.4 N 17 21 996.1 - 0.0 - - - - - - -
16/06:00am 14.2 N 16 21 996.6 - 0.0 - - - - - - -
16/05:30am 13.7 N 16 21 996.9 - 0.0 - - - - - - -
16/05:00am 13.7 NNE 16 21 997.7 - 0.0 - - - - - - -
16/04:30am 13.9 NNE 12 17 998.4 - 0.0 - - - - - - -
16/04:00am 13.9 NNE 7 11 998.6 - 0.0 - - - - - - -
16/03:30am 14.4 NNE 7 11 999.0 - 0.0 - - - - - - -
16/03:00am 14.5 NNE 8 10 999.5 - 0.0 - - - - - - -
16/02:30am 14.9 NNE 11 14 1000.0 - 0.0 - - - - - - -
16/02:00am 15.1 NNE 12 15 1000.5 - 0.0 - - - - - - -
16/01:30am 15.2 NNE 10 16 1001.3 - 0.0 - - - - - - -
16/01:00am 15.1 NNE 8 17 1002.1 - 0.0 - - - - - - -
16/12:30am 14.9 N 5 15 1002.6 - 0.0 - - - - - - -
16/12:00am 14.7 N 5 11 1003.3 - 0.0 - - - - - - -
 
Date/Time
EDT
Temp

°C
Wind Pressure Rain
since 9am
mm
Weather Cloud Vis
km
Sea
Height
m
Swell
Dir
 
Speed
knots
Gust
knots
hPa Trend Height
m
Period
s
Dir
15/11:30pm 14.6 ENE 4 12 1003.8 - 0.0 - - - - - - -
15/11:00pm 14.6 ESE 5 13 1004.6 - 0.0 - - - - - - -
15/10:30pm 14.5 NNW 3 9 1005.1 - 0.0 - - - - - - -
15/10:00pm 14.4 NE 5 14 1005.3 - 0.0 - - - - - - -
15/09:30pm 14.5 E 4 9 1005.7 - 0.0 - - - - - - -
15/09:00pm 14.4 SE 3 8 1006.0 - 0.0 - - - - - - -
15/08:30pm 14.4 ENE 4 12 1006.1 - 0.0 - - - - - - -
15/08:00pm 14.7 E 5 13 1006.4 - 0.0 - - - - - - -
15/07:30pm 15.0 WSW 3 11 1006.2 - 0.0 - - - - - - -
15/07:00pm 14.9 ESE 6 15 1006.2 - 0.0 - - - - - - -
15/06:30pm 15.8 WSW 4 11 1006.1 - 0.0 - - - - - - -
15/06:00pm 15.6 ENE 5 12 1006.3 - 0.0 - - - - - - -
15/05:30pm 15.5 W 3 9 1006.4 - 0.0 - - - - - - -
15/05:00pm 15.8 ESE 5 12 1006.7 - 0.0 - - - - - - -
15/04:30pm 16.3 E 3 11 1007.0 - 0.0 - - - - - - -
15/04:00pm 16.3 NNE 4 14 1007.3 - 0.0 - - - - - - -
15/03:30pm 16.2 N 4 11 1007.5 - 0.0 - - - - - - -
15/03:00pm 15.9 NNE 7 15 1007.8 - 0.0 - - - - - - -
15/02:30pm 15.8 NNE 9 20 1008.0 - 0.0 - - - - - - -
15/02:00pm 17.8 NNE 9 17 1008.1 - 0.0 - - - - - - -
15/01:30pm 17.0 NNE 12 17 1008.2 - 0.0 - - - - - - -

Other Formats:

Comma delimited format used in spreadsheet applications
http://www.bom.gov.au/fwo/IDT60701/IDT60701.95986.axf

JavaScript Object Notation format (JSON) in row-major order
http://www.bom.gov.au/fwo/IDT60701/IDT60701.95986.json